Time;durP1;ratioP1;P1;durP2;ratioP2;P2;SDS_P1;SDS_P2;PMS_P1;PMS_P2;Temp;Humidity;BMP_temperature;BMP_pressure;BME280_temperature;BME280_humidity;BME280_pressure;Samples;Min_cycle;Max_cycle;Signal;HPM_P1;HPM_P2
2023/08/23 00:00:24;;;;;;;6.43;1.70;;;20.80;99.90;;;;;;5082072;27;45277;-70
2023/08/23 00:02:51;;;;;;;6.43;1.63;;;20.80;99.90;;;;;;5085832;27;45110;-69
2023/08/23 00:05:18;;;;;;;3.83;1.33;;;20.80;99.90;;;;;;5081488;28;45315;-69
2023/08/23 00:07:45;;;;;;;4.68;1.75;;;20.80;99.90;;;;;;5079417;27;45116;-70
2023/08/23 00:10:13;;;;;;;3.00;1.45;;;20.80;99.90;;;;;;5081243;27;45266;-70
2023/08/23 00:12:40;;;;;;;3.13;1.52;;;20.80;99.90;;;;;;5080276;27;45164;-70
2023/08/23 00:15:08;;;;;;;3.53;1.00;;;20.80;99.90;;;;;;5075456;27;45362;-69
2023/08/23 00:17:35;;;;;;;4.90;1.30;;;20.70;99.90;;;;;;5083053;27;45050;-70
2023/08/23 00:20:02;;;;;;;4.05;1.75;;;20.70;99.90;;;;;;5079424;27;45177;-70
2023/08/23 00:22:29;;;;;;;3.25;1.58;;;20.70;99.90;;;;;;5078621;27;45183;-70
2023/08/23 00:24:55;;;;;;;3.20;1.50;;;20.70;99.90;;;;;;5081773;27;45322;-70
2023/08/23 00:27:23;;;;;;;3.88;1.50;;;20.70;99.90;;;;;;5083739;27;45381;-70
2023/08/23 00:29:50;;;;;;;1.77;1.40;;;20.70;99.90;;;;;;5073868;27;45262;-70
2023/08/23 00:32:17;;;;;;;3.47;1.52;;;20.70;99.90;;;;;;5072916;27;45244;-70
2023/08/23 00:34:44;;;;;;;3.08;1.63;;;20.80;99.90;;;;;;5072012;27;45241;-70
2023/08/23 00:37:11;;;;;;;1.55;1.10;;;20.70;99.90;;;;;;5077527;28;45242;-70
2023/08/23 00:39:37;;;;;;;2.78;1.40;;;20.70;99.90;;;;;;5083137;28;46215;-69
2023/08/23 00:42:04;;;;;;;6.35;1.80;;;20.70;99.90;;;;;;5073424;28;45172;-69
2023/08/23 00:44:32;;;;;;;4.20;1.20;;;20.70;99.90;;;;;;5073625;28;45106;-70
2023/08/23 00:47:00;;;;;;;3.42;1.60;;;20.60;99.90;;;;;;5072270;27;45285;-69
2023/08/23 00:49:33;;;;;;;5.78;1.85;;;20.60;99.90;;;;;;5069374;27;45361;-70
2023/08/23 00:52:01;;;;;;;2.40;1.38;;;20.60;99.90;;;;;;5082604;27;45214;-69
2023/08/23 00:54:28;;;;;;;5.07;1.60;;;20.60;99.90;;;;;;5081035;27;45286;-70
2023/08/23 00:56:56;;;;;;;4.78;1.60;;;20.60;99.90;;;;;;5075063;28;45386;-70
2023/08/23 00:59:23;;;;;;;2.28;1.20;;;20.70;99.90;;;;;;5080664;27;48213;-70
2023/08/23 01:01:52;;;;;;;5.10;1.60;;;20.70;99.90;;;;;;5080817;27;45202;-70
2023/08/23 01:04:19;;;;;;;6.57;1.73;;;20.70;99.90;;;;;;5081125;27;45200;-69
2023/08/23 01:06:55;;;;;;;7.30;1.40;;;20.70;99.90;;;;;;5081317;27;45357;-70
2023/08/23 01:09:30;;;;;;;2.35;1.52;;;20.70;99.90;;;;;;5080369;27;45205;-70
2023/08/23 01:12:06;;;;;;;3.92;1.70;;;20.60;99.90;;;;;;5080373;27;45201;-70
2023/08/23 01:14:43;;;;;;;7.38;1.70;;;20.60;99.90;;;;;;5077621;27;45155;-69
2023/08/23 01:17:13;;;;;;;4.13;1.95;;;20.60;99.90;;;;;;5077975;27;45388;-70
2023/08/23 01:19:44;;;;;;;2.97;1.58;;;20.60;99.90;;;;;;5077092;27;45370;-70
2023/08/23 01:22:13;;;;;;;4.30;2.00;;;20.60;99.90;;;;;;5077871;27;45288;-70
2023/08/23 01:24:41;;;;;;;5.85;1.60;;;20.50;99.90;;;;;;5076888;27;45193;-70
2023/08/23 01:27:08;;;;;;;5.80;1.70;;;20.50;99.90;;;;;;5078538;27;45315;-69
2023/08/23 01:29:35;;;;;;;4.25;1.65;;;20.50;99.90;;;;;;5076386;27;48102;-70
2023/08/23 01:32:12;;;;;;;4.82;1.77;;;20.40;99.90;;;;;;5076500;27;45290;-70
2023/08/23 01:34:45;;;;;;;4.07;1.50;;;20.40;99.90;;;;;;5076233;27;45221;-70
2023/08/23 01:37:12;;;;;;;4.63;2.10;;;20.50;99.90;;;;;;5081628;28;45360;-70
2023/08/23 01:39:39;;;;;;;5.63;2.15;;;20.40;99.90;;;;;;5075776;27;47386;-70
2023/08/23 01:42:07;;;;;;;4.35;1.67;;;20.40;99.90;;;;;;5072515;27;45620;-70
2023/08/23 01:44:34;;;;;;;3.92;1.60;;;20.40;99.90;;;;;;5081980;27;45296;-70
2023/08/23 01:47:01;;;;;;;5.72;1.63;;;20.40;99.90;;;;;;5076531;27;45288;-70
2023/08/23 01:49:28;;;;;;;3.28;2.05;;;20.40;99.90;;;;;;5076119;28;46288;-70
2023/08/23 01:51:55;;;;;;;7.57;1.92;;;20.40;99.90;;;;;;5079802;27;45039;-70
2023/08/23 01:54:21;;;;;;;7.32;2.22;;;20.40;99.90;;;;;;5082977;28;45232;-70
2023/08/23 01:56:48;;;;;;;3.60;1.70;;;20.30;99.90;;;;;;5074838;27;45443;-69
2023/08/23 01:59:16;;;;;;;2.28;1.50;;;20.30;99.90;;;;;;5081168;27;46253;-70
2023/08/23 02:01:43;;;;;;;5.78;1.60;;;20.30;99.90;;;;;;5082215;27;45282;-70
2023/08/23 02:04:10;;;;;;;6.70;1.73;;;20.30;99.90;;;;;;5077367;27;45236;-70
2023/08/23 02:06:36;;;;;;;2.80;1.63;;;20.30;99.90;;;;;;5082706;27;45459;-70
2023/08/23 02:09:03;;;;;;;5.13;1.60;;;20.20;99.90;;;;;;5083785;27;45256;-70
2023/08/23 02:11:32;;;;;;;6.25;1.50;;;20.30;99.90;;;;;;5078421;27;45178;-69
2023/08/23 02:13:59;;;;;;;6.28;1.67;;;20.20;99.90;;;;;;5084218;27;45255;-70
2023/08/23 02:16:28;;;;;;;2.80;1.50;;;20.20;99.90;;;;;;5080581;27;45192;-70
2023/08/23 02:18:55;;;;;;;2.22;1.35;;;20.20;99.90;;;;;;5084137;27;46823;-70
2023/08/23 02:21:21;;;;;;;7.18;1.85;;;20.20;99.90;;;;;;5083274;27;45288;-70
2023/08/23 02:23:48;;;;;;;2.35;1.30;;;20.20;99.90;;;;;;5081525;27;45187;-69
2023/08/23 02:26:16;;;;;;;6.22;1.90;;;20.20;99.90;;;;;;5082006;27;45283;-70
2023/08/23 02:28:43;;;;;;;4.28;1.65;;;20.20;99.90;;;;;;5078660;27;46231;-69
2023/08/23 02:31:10;;;;;;;10.45;1.88;;;20.20;99.90;;;;;;5081576;27;45269;-69
2023/08/23 02:33:38;;;;;;;3.65;1.45;;;20.20;99.90;;;;;;5082679;27;45496;-69
2023/08/23 02:36:05;;;;;;;11.18;1.70;;;20.30;99.90;;;;;;5083340;27;45233;-69
2023/08/23 02:38:32;;;;;;;6.88;2.03;;;20.20;99.90;;;;;;5081435;27;47386;-69
2023/08/23 02:40:58;;;;;;;6.28;1.60;;;20.30;99.90;;;;;;5079579;27;45822;-70
2023/08/23 02:43:25;;;;;;;10.40;1.80;;;20.30;99.90;;;;;;5082866;27;45265;-69
2023/08/23 02:45:52;;;;;;;8.80;1.70;;;20.30;99.90;;;;;;5083979;27;45255;-69
2023/08/23 02:48:19;;;;;;;6.68;2.10;;;20.30;99.90;;;;;;5081916;27;47443;-70
2023/08/23 02:50:47;;;;;;;7.30;1.55;;;20.30;99.90;;;;;;5086047;27;45197;-70
2023/08/23 02:53:14;;;;;;;9.38;2.40;;;20.20;99.90;;;;;;5080281;27;45224;-69
2023/08/23 02:55:40;;;;;;;10.43;1.48;;;20.20;99.90;;;;;;5078919;27;45230;-69
2023/08/23 02:58:07;;;;;;;9.15;1.98;;;20.20;99.90;;;;;;5082163;27;46372;-69
2023/08/23 03:00:34;;;;;;;6.70;1.90;;;20.20;99.90;;;;;;5074705;27;45264;-69
2023/08/23 03:03:01;;;;;;;6.88;1.90;;;20.10;99.90;;;;;;5083891;27;45197;-70
2023/08/23 03:05:28;;;;;;;8.40;1.70;;;20.20;99.90;;;;;;5076349;27;45099;-69
2023/08/23 03:07:55;;;;;;;5.35;1.60;;;20.20;99.90;;;;;;5083303;27;47326;-69
2023/08/23 03:10:22;;;;;;;5.47;1.65;;;20.20;99.90;;;;;;5082282;27;46749;-70
2023/08/23 03:12:49;;;;;;;11.73;2.42;;;20.10;99.90;;;;;;5079508;27;45199;-69
2023/08/23 03:15:16;;;;;;;11.63;2.08;;;20.10;99.90;;;;;;5082845;27;45127;-70
2023/08/23 03:17:42;;;;;;;12.23;2.00;;;20.10;99.90;;;;;;5083733;27;46030;-70
2023/08/23 03:20:09;;;;;;;8.70;1.60;;;20.10;99.90;;;;;;5079431;27;45251;-70
2023/08/23 03:22:36;;;;;;;14.20;2.13;;;20.10;99.90;;;;;;5079580;27;45460;-69
2023/08/23 03:25:05;;;;;;;7.28;1.60;;;20.10;99.90;;;;;;5081841;27;45283;-69
2023/08/23 03:27:32;;;;;;;6.18;1.90;;;20.10;99.90;;;;;;5079151;27;48364;-70
2023/08/23 03:29:59;;;;;;;11.32;1.63;;;20.00;99.90;;;;;;5080160;27;45497;-69
2023/08/23 03:32:25;;;;;;;6.72;1.95;;;20.00;99.90;;;;;;5083447;27;45208;-69
2023/08/23 03:34:52;;;;;;;7.05;1.70;;;20.00;99.90;;;;;;5082689;27;45269;-69
2023/08/23 03:37:19;;;;;;;8.18;1.50;;;20.00;99.90;;;;;;5083069;28;46229;-69
2023/08/23 03:39:45;;;;;;;6.40;1.70;;;20.00;99.90;;;;;;5083074;28;45110;-70
2023/08/23 03:42:14;;;;;;;11.18;1.75;;;20.00;99.90;;;;;;5073564;27;45317;-69
2023/08/23 03:44:41;;;;;;;10.57;2.03;;;20.00;99.90;;;;;;5077215;28;45145;-70
2023/08/23 03:47:08;;;;;;;6.80;2.05;;;20.00;99.90;;;;;;5076812;27;46289;-69
2023/08/23 03:49:36;;;;;;;7.15;1.83;;;20.00;99.90;;;;;;5078710;27;45134;-70
2023/08/23 03:52:02;;;;;;;10.95;2.20;;;20.00;99.90;;;;;;5080432;27;45279;-70
2023/08/23 03:54:29;;;;;;;6.10;1.50;;;20.00;99.90;;;;;;5081665;27;45324;-69
2023/08/23 03:56:56;;;;;;;4.50;1.90;;;19.90;99.90;;;;;;5081708;27;48590;-70
2023/08/23 03:59:24;;;;;;;6.63;1.55;;;19.80;99.90;;;;;;5080657;27;45236;-69
2023/08/23 04:01:51;;;;;;;2.78;1.42;;;19.80;99.90;;;;;;5080976;27;45126;-70
2023/08/23 04:04:18;;;;;;;7.38;1.35;;;19.80;99.90;;;;;;5081477;27;45287;-70
2023/08/23 04:06:44;;;;;;;4.47;1.33;;;19.70;99.90;;;;;;5080175;27;45326;-69
2023/08/23 04:09:11;;;;;;;5.97;1.40;;;19.70;99.90;;;;;;5080868;27;45124;-69
2023/08/23 04:11:38;;;;;;;4.68;1.38;;;19.70;99.90;;;;;;5077283;27;45255;-70
2023/08/23 04:14:05;;;;;;;2.95;1.30;;;19.70;99.90;;;;;;5076223;27;45338;-70
2023/08/23 04:16:33;;;;;;;5.82;1.50;;;19.60;99.90;;;;;;5078569;27;46570;-66
2023/08/23 04:18:59;;;;;;;3.30;1.40;;;19.60;99.90;;;;;;5082553;27;45233;-66
2023/08/23 04:21:26;;;;;;;8.80;1.90;;;19.60;99.90;;;;;;5074994;27;45351;-66
2023/08/23 04:23:53;;;;;;;12.32;2.40;;;18.50;99.90;;;;;;5078864;27;45255;-66
2023/08/23 04:26:20;;;;;;;12.95;2.20;;;16.00;99.90;;;;;;5075711;27;46191;-67
2023/08/23 04:28:47;;;;;;;15.27;2.20;;;15.50;99.90;;;;;;5076417;27;45220;-65
2023/08/23 04:31:14;;;;;;;11.63;2.50;;;15.40;99.90;;;;;;5081029;27;45479;-66
2023/08/23 04:33:43;;;;;;;15.85;3.22;;;15.30;99.90;;;;;;5078655;27;45356;-66
2023/08/23 04:36:09;;;;;;;16.20;2.97;;;15.30;99.90;;;;;;5081129;27;45213;-67
2023/08/23 04:38:36;;;;;;;20.08;3.05;;;15.40;99.90;;;;;;5076108;27;45272;-66
2023/08/23 04:41:04;;;;;;;9.88;2.38;;;15.60;99.90;;;;;;5081820;27;45547;-66
2023/08/23 04:43:31;;;;;;;10.75;2.67;;;15.40;99.90;;;;;;5074836;27;45250;-68
2023/08/23 04:46:00;;;;;;;15.73;2.40;;;15.20;99.90;;;;;;5076578;27;47174;-68
2023/08/23 04:48:26;;;;;;;12.98;2.58;;;15.10;99.90;;;;;;5083272;27;45067;-68
2023/08/23 04:50:58;;;;;;;5.90;2.25;;;14.90;99.90;;;;;;5079054;27;45223;-67
2023/08/23 04:53:24;;;;;;;5.10;2.03;;;14.90;99.90;;;;;;5077759;27;45087;-67
2023/08/23 04:55:55;;;;;;;6.70;2.57;;;14.90;99.90;;;;;;5081340;27;46351;-67
2023/08/23 04:58:27;;;;;;;7.78;2.60;;;14.70;99.90;;;;;;5082597;28;45086;-67
2023/08/23 05:00:54;;;;;;;6.82;2.05;;;14.60;99.90;;;;;;5077634;27;45167;-66
2023/08/23 05:03:21;;;;;;;6.30;2.10;;;14.70;99.90;;;;;;5089137;27;45336;-66
2023/08/23 05:05:48;;;;;;;7.32;2.60;;;14.70;99.90;;;;;;5078425;27;46249;-66
2023/08/23 05:08:16;;;;;;;8.98;2.85;;;15.00;99.90;;;;;;5081735;27;45110;-67
2023/08/23 05:10:43;;;;;;;9.13;2.50;;;15.30;99.90;;;;;;5073586;27;45941;-66
2023/08/23 05:13:10;;;;;;;8.45;2.25;;;15.50;99.90;;;;;;5078336;27;45363;-67
2023/08/23 05:15:36;;;;;;;6.50;2.25;;;15.40;99.90;;;;;;5077395;27;47081;-66
2023/08/23 05:18:03;;;;;;;8.88;2.28;;;15.40;99.90;;;;;;5080363;27;45200;-67
2023/08/23 05:20:30;;;;;;;8.75;2.33;;;15.50;99.90;;;;;;5079069;27;45127;-67
2023/08/23 05:22:57;;;;;;;9.18;2.53;;;15.60;99.90;;;;;;5078895;27;45274;-67
2023/08/23 05:25:25;;;;;;;7.38;2.60;;;15.60;99.90;;;;;;5072801;27;46412;-67
2023/08/23 05:27:52;;;;;;;13.38;2.72;;;15.60;99.90;;;;;;5079447;27;45181;-67
2023/08/23 05:30:18;;;;;;;9.25;2.45;;;15.70;99.90;;;;;;5077485;27;45186;-67
2023/08/23 05:32:45;;;;;;;13.15;2.03;;;15.90;99.90;;;;;;5079297;27;45235;-67
2023/08/23 05:35:12;;;;;;;6.32;2.25;;;16.00;99.90;;;;;;5077217;27;47363;-68
2023/08/23 05:37:39;;;;;;;5.45;2.50;;;16.10;99.90;;;;;;5079338;27;45269;-67
2023/08/23 05:40:08;;;;;;;11.70;2.45;;;16.20;99.90;;;;;;5073457;27;45233;-68
2023/08/23 05:42:36;;;;;;;10.15;2.42;;;16.20;99.90;;;;;;5075183;27;45195;-68
2023/08/23 05:45:03;;;;;;;9.25;2.80;;;16.30;99.90;;;;;;5076041;27;47921;-69
2023/08/23 05:47:30;;;;;;;6.40;3.22;;;16.40;99.90;;;;;;5081330;27;45425;-69
2023/08/23 05:49:57;;;;;;;12.63;2.67;;;16.50;99.90;;;;;;5076297;28;45495;-68
2023/08/23 05:52:24;;;;;;;11.55;2.80;;;16.70;99.90;;;;;;5078733;27;45368;-68
2023/08/23 05:54:50;;;;;;;11.55;3.00;;;16.80;99.90;;;;;;5079812;27;45428;-69
2023/08/23 05:57:17;;;;;;;7.72;3.40;;;16.90;99.90;;;;;;5078818;27;45171;-69
2023/08/23 05:59:45;;;;;;;10.45;3.88;;;17.00;99.90;;;;;;5077001;27;45449;-69
2023/08/23 06:02:12;;;;;;;14.23;4.63;;;16.90;99.90;;;;;;5078945;27;45342;-69
2023/08/23 06:04:39;;;;;;;11.63;4.90;;;17.00;99.90;;;;;;5077067;27;47565;-69
2023/08/23 06:07:05;;;;;;;11.60;4.25;;;17.10;99.90;;;;;;5076037;27;45076;-69
2023/08/23 06:09:33;;;;;;;11.00;5.40;;;17.10;99.90;;;;;;5089511;27;45117;-70
2023/08/23 06:12:00;;;;;;;9.40;5.40;;;17.10;99.90;;;;;;5070128;28;45483;-70
2023/08/23 06:14:27;;;;;;;10.13;5.45;;;17.10;99.90;;;;;;5079192;27;45331;-70
2023/08/23 06:16:55;;;;;;;14.93;5.93;;;17.20;99.90;;;;;;5074403;28;45984;-69
2023/08/23 06:19:22;;;;;;;13.57;6.50;;;17.20;99.90;;;;;;5076425;27;45337;-70
2023/08/23 06:21:49;;;;;;;13.63;5.97;;;17.30;99.90;;;;;;5085392;27;45286;-70
2023/08/23 06:24:16;;;;;;;9.50;6.15;;;17.40;99.90;;;;;;5079142;27;47008;-70
2023/08/23 06:26:43;;;;;;;12.00;5.85;;;17.40;99.90;;;;;;5081202;27;45155;-70
2023/08/23 06:29:10;;;;;;;17.13;6.20;;;17.40;99.90;;;;;;5072713;27;45242;-70
2023/08/23 06:31:37;;;;;;;11.63;5.68;;;17.50;99.90;;;;;;5068012;27;45095;-70
2023/08/23 06:34:05;;;;;;;16.83;5.97;;;17.60;99.90;;;;;;5078616;27;46240;-70
2023/08/23 06:36:32;;;;;;;12.73;4.80;;;17.70;99.90;;;;;;5079402;27;45182;-70
2023/08/23 06:38:59;;;;;;;13.13;5.70;;;17.80;99.90;;;;;;5080989;27;45514;-70
2023/08/23 06:41:26;;;;;;;9.30;4.28;;;18.00;99.90;;;;;;5078335;27;45113;-70
2023/08/23 06:44:01;;;;;;;9.65;4.55;;;18.20;99.90;;;;;;5070669;27;45178;-69
2023/08/23 06:46:28;;;;;;;8.20;2.95;;;18.50;99.90;;;;;;5075362;27;45242;-70
2023/08/23 06:48:55;;;;;;;11.52;3.95;;;19.70;99.90;;;;;;5066897;27;45198;-70
2023/08/23 06:51:27;;;;;;;11.80;4.18;;;19.40;99.90;;;;;;5076111;27;45527;-70
2023/08/23 06:53:54;;;;;;;10.18;4.15;;;19.50;99.90;;;;;;5080188;27;46620;-69
2023/08/23 06:56:20;;;;;;;11.07;4.43;;;19.20;99.90;;;;;;5085435;27;45146;-69
2023/08/23 06:58:47;;;;;;;11.65;4.47;;;18.90;99.90;;;;;;5084494;27;45213;-68
2023/08/23 07:01:16;;;;;;;7.65;4.13;;;18.90;99.90;;;;;;5078319;27;45200;-68
2023/08/23 07:03:43;;;;;;;9.77;4.75;;;18.70;99.90;;;;;;5073762;27;45269;-68
2023/08/23 07:06:12;;;;;;;9.80;4.60;;;18.50;99.90;;;;;;5077918;27;45409;-68
2023/08/23 07:08:41;;;;;;;13.88;5.03;;;18.50;99.90;;;;;;5082551;27;45272;-68
2023/08/23 07:11:07;;;;;;;13.90;4.75;;;18.50;99.90;;;;;;5081975;27;45138;-69
2023/08/23 07:13:36;;;;;;;14.70;4.43;;;18.70;99.90;;;;;;5081771;27;45169;-69
2023/08/23 07:16:03;;;;;;;7.93;4.38;;;18.70;99.90;;;;;;5078186;27;45344;-69
2023/08/23 07:18:30;;;;;;;12.18;5.07;;;18.80;99.90;;;;;;5083214;27;45175;-69
2023/08/23 07:20:56;;;;;;;14.40;5.22;;;18.80;99.90;;;;;;5079353;27;45403;-69
2023/08/23 07:23:23;;;;;;;11.38;4.93;;;18.90;99.90;;;;;;5079872;27;47140;-69
2023/08/23 07:25:51;;;;;;;9.45;5.07;;;19.00;99.90;;;;;;5077608;27;45276;-69
2023/08/23 07:28:18;;;;;;;11.50;4.70;;;19.20;99.90;;;;;;5082459;27;45145;-69
2023/08/23 07:30:46;;;;;;;12.60;5.07;;;19.20;99.90;;;;;;5077289;27;45254;-69
2023/08/23 07:33:13;;;;;;;7.43;4.68;;;19.40;99.90;;;;;;5074000;27;46122;-69
2023/08/23 07:35:40;;;;;;;13.85;5.30;;;19.50;99.90;;;;;;5074316;27;45250;-69
2023/08/23 07:38:07;;;;;;;10.65;5.05;;;19.50;99.90;;;;;;5075212;27;45304;-69
2023/08/23 07:40:37;;;;;;;9.00;4.55;;;19.60;99.90;;;;;;5076788;27;45490;-69
2023/08/23 07:43:05;;;;;;;6.78;3.97;;;19.70;99.90;;;;;;5080754;27;47218;-70
2023/08/23 07:45:32;;;;;;;12.45;4.80;;;19.70;99.90;;;;;;5074243;27;45239;-70
2023/08/23 07:47:59;;;;;;;7.20;4.70;;;19.90;99.90;;;;;;5081412;27;45484;-70
2023/08/23 07:50:25;;;;;;;12.77;4.85;;;19.90;99.90;;;;;;5074491;27;45138;-70
2023/08/23 07:52:52;;;;;;;11.15;4.60;;;19.90;99.90;;;;;;5080896;27;46204;-70
2023/08/23 07:55:19;;;;;;;11.00;4.97;;;19.90;99.90;;;;;;5081274;27;46226;-70
2023/08/23 07:57:46;;;;;;;8.85;4.53;;;19.90;99.90;;;;;;5080835;27;45219;-70
2023/08/23 08:00:14;;;;;;;11.85;4.95;;;19.90;99.90;;;;;;5079705;27;45180;-70
2023/08/23 08:02:41;;;;;;;10.98;4.63;;;20.10;99.90;;;;;;5076386;27;46950;-70
2023/08/23 08:05:08;;;;;;;15.18;4.82;;;20.20;99.90;;;;;;5079197;27;45218;-70
2023/08/23 08:07:35;;;;;;;9.75;4.93;;;20.20;99.90;;;;;;5076905;27;45220;-70
2023/08/23 08:10:02;;;;;;;15.40;5.28;;;20.10;99.90;;;;;;5082751;27;45216;-70
2023/08/23 08:12:29;;;;;;;16.65;5.47;;;20.10;99.90;;;;;;5079435;27;47982;-70
2023/08/23 08:14:55;;;;;;;14.35;5.63;;;20.20;99.90;;;;;;5076900;27;45287;-70
2023/08/23 08:17:24;;;;;;;13.65;5.50;;;20.10;99.90;;;;;;5081395;27;45125;-70
2023/08/23 08:19:50;;;;;;;11.50;6.32;;;20.10;99.90;;;;;;5080658;27;45270;-70
2023/08/23 08:22:17;;;;;;;10.15;5.35;;;20.20;99.90;;;;;;5074732;27;47058;-70
2023/08/23 08:24:44;;;;;;;19.08;6.50;;;20.40;99.90;;;;;;5077419;27;45509;-70
2023/08/23 08:27:11;;;;;;;8.20;5.22;;;20.40;99.90;;;;;;5077166;27;45423;-70
2023/08/23 08:29:38;;;;;;;13.95;5.60;;;20.50;99.90;;;;;;5071704;27;45356;-70
2023/08/23 08:32:05;;;;;;;11.57;5.57;;;20.50;99.90;;;;;;5068995;27;46520;-70
2023/08/23 08:34:33;;;;;;;7.82;3.88;;;20.70;99.90;;;;;;5076850;27;45287;-70
2023/08/23 08:37:00;;;;;;;12.80;6.07;;;20.90;99.90;;;;;;5085130;27;45280;-70
2023/08/23 08:39:27;;;;;;;19.83;6.25;;;21.00;99.90;;;;;;5078400;27;45357;-70
2023/08/23 08:41:55;;;;;;;18.65;6.15;;;21.10;99.90;;;;;;5077277;27;47967;-70
2023/08/23 08:44:23;;;;;;;15.82;7.05;;;20.90;99.90;;;;;;5080818;27;45261;-70
2023/08/23 08:46:49;;;;;;;13.30;5.80;;;20.90;99.90;;;;;;5075769;27;45343;-70
2023/08/23 08:49:16;;;;;;;9.15;4.35;;;20.90;99.90;;;;;;5082155;27;45269;-70
2023/08/23 08:51:47;;;;;;;12.80;4.85;;;21.20;99.90;;;;;;5076619;27;47279;-70
2023/08/23 08:54:17;;;;;;;16.15;6.07;;;21.40;99.90;;;;;;5075103;27;45197;-70
2023/08/23 08:56:47;;;;;;;14.15;5.90;;;21.20;99.90;;;;;;5077466;27;45229;-70
2023/08/23 08:59:14;;;;;;;14.57;6.63;;;21.20;99.90;;;;;;5077812;27;45312;-70
2023/08/23 09:01:43;;;;;;;10.10;5.88;;;21.60;99.90;;;;;;5079065;27;45274;-70
2023/08/23 09:04:10;;;;;;;14.55;6.95;;;21.50;99.90;;;;;;5072679;27;45261;-70
2023/08/23 09:06:38;;;;;;;17.30;6.95;;;21.40;99.90;;;;;;5082163;27;45175;-70
2023/08/23 09:09:07;;;;;;;18.95;7.00;;;21.70;99.90;;;;;;5068141;27;45333;-70
2023/08/23 09:11:34;;;;;;;13.68;6.15;;;21.50;99.90;;;;;;5066624;27;46530;-70
2023/08/23 09:14:13;;;;;;;18.65;6.93;;;21.70;99.90;;;;;;5080741;27;45280;-70
2023/08/23 09:16:40;;;;;;;21.13;6.80;;;21.60;99.90;;;;;;5066660;27;45273;-70
2023/08/23 09:19:09;;;;;;;21.13;7.00;;;21.90;99.90;;;;;;5079507;27;45108;-70
2023/08/23 09:21:36;;;;;;;21.30;7.35;;;21.70;99.90;;;;;;5075258;27;45276;-70
2023/08/23 09:24:04;;;;;;;18.48;7.15;;;21.60;99.90;;;;;;5072950;27;45292;-70
2023/08/23 09:26:32;;;;;;;7.63;3.78;;;21.80;99.90;;;;;;5079678;27;45289;-70
2023/08/23 09:28:58;;;;;;;13.00;5.47;;;22.10;99.90;;;;;;5082644;27;45047;-70
2023/08/23 09:31:26;;;;;;;9.05;4.78;;;22.20;99.90;;;;;;5078791;27;47439;-70
2023/08/23 09:33:53;;;;;;;7.40;2.78;;;22.20;99.90;;;;;;5081893;27;45323;-68
2023/08/23 09:36:27;;;;;;;16.70;5.32;;;22.30;99.90;;;;;;5077398;27;45446;-67
2023/08/23 09:38:54;;;;;;;11.63;4.78;;;22.40;99.90;;;;;;5071595;27;45247;-67
2023/08/23 09:41:22;;;;;;;9.20;3.17;;;22.20;99.90;;;;;;5079805;27;46554;-67
2023/08/23 09:43:54;;;;;;;12.82;4.78;;;22.50;99.90;;;;;;5080587;27;45218;-67
2023/08/23 09:46:24;;;;;;;15.20;5.82;;;22.50;99.90;;;;;;5079854;27;45240;-68
2023/08/23 09:48:53;;;;;;;12.82;5.10;;;22.40;99.90;;;;;;5075596;27;45202;-68
2023/08/23 09:51:24;;;;;;;18.42;4.53;;;22.30;99.90;;;;;;5071933;27;47241;-69
2023/08/23 09:53:55;;;;;;;12.63;4.38;;;22.30;99.90;;;;;;5074939;27;45266;-69
2023/08/23 09:56:22;;;;;;;12.32;4.63;;;22.40;99.90;;;;;;5078959;27;45217;-69
2023/08/23 09:58:51;;;;;;;15.57;4.05;;;22.50;99.90;;;;;;5075621;27;45411;-69
2023/08/23 10:01:17;;;;;;;15.02;4.57;;;22.60;99.90;;;;;;5072252;27;45268;-70
2023/08/23 10:03:44;;;;;;;11.18;3.95;;;22.50;99.90;;;;;;5079579;27;45340;-68
2023/08/23 10:06:11;;;;;;;14.80;5.28;;;22.60;99.90;;;;;;5077463;27;45431;-67
2023/08/23 10:08:40;;;;;;;14.52;4.95;;;22.60;99.90;;;;;;5072963;27;45235;-67
2023/08/23 10:11:07;;;;;;;24.25;4.45;;;22.60;99.90;;;;;;5073110;27;45532;-68
2023/08/23 10:13:35;;;;;;;12.73;4.15;;;22.60;99.90;;;;;;5075255;27;45168;-68
2023/08/23 10:16:07;;;;;;;10.75;3.92;;;22.60;99.90;;;;;;5073340;27;45413;-68
2023/08/23 10:18:35;;;;;;;14.77;4.35;;;22.70;99.90;;;;;;5066118;27;45443;-68
2023/08/23 10:21:03;;;;;;;11.63;4.75;;;22.60;99.90;;;;;;5069971;27;45296;-68
2023/08/23 10:23:33;;;;;;;11.73;4.20;;;22.60;99.90;;;;;;5071648;27;45158;-68
2023/08/23 10:26:02;;;;;;;8.45;3.67;;;22.50;99.90;;;;;;5066283;27;45108;-68
2023/08/23 10:28:29;;;;;;;6.97;3.22;;;22.50;99.90;;;;;;5072916;27;45344;-68
2023/08/23 10:31:00;;;;;;;9.93;3.25;;;22.40;99.90;;;;;;5080896;27;46215;-67
2023/08/23 10:33:31;;;;;;;7.82;2.70;;;22.50;99.90;;;;;;5076492;27;45188;-68
2023/08/23 10:35:57;;;;;;;6.30;2.67;;;22.40;99.90;;;;;;5079246;27;45291;-68
2023/08/23 10:38:24;;;;;;;9.18;2.30;;;22.40;99.90;;;;;;5080113;27;45134;-69
2023/08/23 10:40:51;;;;;;;8.48;2.33;;;22.40;99.90;;;;;;5074911;27;48501;-66
2023/08/23 10:43:19;;;;;;;8.32;2.60;;;22.50;99.90;;;;;;5080999;27;45197;-67
2023/08/23 10:45:53;;;;;;;7.53;2.72;;;22.60;99.90;;;;;;5082520;27;45099;-67
2023/08/23 10:48:22;;;;;;;4.88;2.25;;;22.60;99.90;;;;;;5079320;27;45401;-68
2023/08/23 10:50:51;;;;;;;8.02;2.15;;;22.70;99.90;;;;;;5073246;27;45635;-69
2023/08/23 10:53:18;;;;;;;9.90;2.38;;;22.70;99.90;;;;;;5076235;27;45352;-68
2023/08/23 10:55:45;;;;;;;10.73;2.40;;;22.70;99.90;;;;;;5081719;27;45196;-69
2023/08/23 10:58:13;;;;;;;8.70;2.20;;;22.70;99.90;;;;;;5083786;27;45122;-69
2023/08/23 11:00:42;;;;;;;6.35;2.05;;;22.70;99.90;;;;;;5077617;27;47518;-69
2023/08/23 11:03:09;;;;;;;6.72;1.70;;;22.60;99.90;;;;;;5075903;27;45302;-69
2023/08/23 11:05:36;;;;;;;8.73;2.17;;;22.60;99.90;;;;;;5082562;27;45260;-70
2023/08/23 11:08:06;;;;;;;8.23;2.13;;;22.70;99.90;;;;;;5076814;27;45253;-70
2023/08/23 11:10:33;;;;;;;10.77;2.00;;;22.70;99.90;;;;;;5084748;27;46336;-69
2023/08/23 11:13:00;;;;;;;6.43;1.73;;;22.60;99.90;;;;;;5085914;27;45185;-66
2023/08/23 11:15:27;;;;;;;7.03;1.73;;;22.60;99.90;;;;;;5078648;27;45287;-67
2023/08/23 11:17:53;;;;;;;12.45;2.30;;;22.70;99.90;;;;;;5077085;27;45178;-66
2023/08/23 11:20:21;;;;;;;14.75;2.60;;;22.80;99.50;;;;;;5074142;27;46035;-67
2023/08/23 11:22:48;;;;;;;11.32;1.90;;;22.90;99.00;;;;;;5082765;27;45742;-68
2023/08/23 11:25:16;;;;;;;15.13;1.95;;;22.90;99.40;;;;;;5069634;27;45265;-68
2023/08/23 11:27:43;;;;;;;10.95;2.03;;;23.00;99.90;;;;;;5072423;27;45228;-67
2023/08/23 11:30:10;;;;;;;8.25;1.77;;;23.00;98.80;;;;;;5074052;27;45391;-68
2023/08/23 11:32:38;;;;;;;9.52;2.00;;;23.00;99.40;;;;;;5071417;27;45419;-69
2023/08/23 11:35:06;;;;;;;12.40;2.22;;;23.00;99.90;;;;;;5079870;27;45117;-69
2023/08/23 11:37:36;;;;;;;6.93;1.85;;;23.00;99.80;;;;;;5070461;27;45313;-69
2023/08/23 11:40:07;;;;;;;5.80;2.08;;;23.10;98.50;;;;;;5080699;27;48065;-68
2023/08/23 11:42:36;;;;;;;5.38;1.88;;;23.10;97.40;;;;;;5078764;27;45541;-67
2023/08/23 11:45:05;;;;;;;7.10;1.83;;;23.10;97.50;;;;;;5075533;27;45295;-68
2023/08/23 11:47:32;;;;;;;3.55;1.67;;;23.00;98.30;;;;;;5076493;27;45222;-68
2023/08/23 11:49:59;;;;;;;4.43;1.52;;;23.00;99.90;;;;;;5074269;27;47952;-69
2023/08/23 11:52:29;;;;;;;6.60;1.73;;;23.00;97.70;;;;;;5075180;27;45264;-68
2023/08/23 11:54:55;;;;;;;4.30;1.70;;;23.00;98.20;;;;;;5083565;27;45267;-69
2023/08/23 11:57:22;;;;;;;5.72;1.80;;;23.00;97.50;;;;;;5077063;27;45347;-68
2023/08/23 11:59:50;;;;;;;7.85;1.70;;;23.00;94.90;;;;;;5076598;27;46342;-68
2023/08/23 12:02:17;;;;;;;8.95;2.05;;;23.00;96.00;;;;;;5081840;27;45327;-69
2023/08/23 12:04:44;;;;;;;5.30;1.85;;;23.10;95.20;;;;;;5073160;27;45299;-69
2023/08/23 12:07:12;;;;;;;5.97;2.45;;;23.00;96.40;;;;;;5080515;27;45241;-69
2023/08/23 12:09:40;;;;;;;5.22;2.42;;;23.10;97.30;;;;;;5079460;27;45314;-69
2023/08/23 12:12:07;;;;;;;4.75;2.28;;;23.10;94.40;;;;;;5072940;27;45279;-69
2023/08/23 12:14:34;;;;;;;4.68;2.33;;;23.00;95.30;;;;;;5077944;27;45173;-69
2023/08/23 12:17:02;;;;;;;7.50;2.28;;;23.00;94.70;;;;;;5068688;27;45241;-69
2023/08/23 12:19:34;;;;;;;6.57;2.78;;;23.00;95.30;;;;;;5075737;27;47078;-69
2023/08/23 12:22:01;;;;;;;7.70;2.30;;;23.10;94.30;;;;;;5070843;27;45141;-70
2023/08/23 12:24:28;;;;;;;11.05;3.13;;;23.10;94.70;;;;;;5075662;27;45217;-69
2023/08/23 12:26:55;;;;;;;4.65;1.65;;;23.10;96.30;;;;;;5069212;27;45569;-69
2023/08/23 12:29:22;;;;;;;2.47;1.50;;;23.00;98.70;;;;;;5077481;27;46432;-70
2023/08/23 12:31:49;;;;;;;8.05;2.53;;;22.90;99.10;;;;;;5071558;27;45218;-70
2023/08/23 12:34:17;;;;;;;5.88;2.45;;;22.90;96.70;;;;;;5071602;27;45234;-69
2023/08/23 12:36:44;;;;;;;8.60;2.20;;;23.00;94.70;;;;;;5073769;27;45320;-70
2023/08/23 12:39:11;;;;;;;4.55;2.67;;;23.10;93.70;;;;;;5075655;27;46304;-69
2023/08/23 12:41:37;;;;;;;6.72;3.03;;;23.20;91.60;;;;;;5072432;27;45268;-70
2023/08/23 12:44:04;;;;;;;7.82;2.85;;;23.20;91.30;;;;;;5069424;27;45264;-70